x

Nantucket 54nm Southeast Of Nantucket (44008) Wave Buoy

10:50pm - Tue 30th Aug 2016 All times are EDT. -4 hours from GMT.

  • Sig Wave height 5.2ft
  • Swell Direction
  • Peak Period 12s
  • Average Period 9s
  • Wind
    7mph
  • Sea Temp 72°f
  • Air Temp 70°f
  • Sea Pressure 1018.8mb
  • Nantucket 54nm Southeast Of Nantucket
  • Nantucket 54nm Southeast Of Nantucket

More Historic Weather Station data

Upgrade to MSW Pro to gain access to the past 30 days of data for over 8000 Wavebouys and Weather Stations around the globe.

Join Pro

Comparision Forecast

View Surf forecast
   
Tue 08/30 10:50pm 5ft 12s 9s 7
mph
1018.8mb 72f 70f
9:50pm 4.5ft 12s 9s 7 9 mph 1018.9mb 72f 70f
8:50pm 5ft 12s 9s 7 9 mph 1019mb 73f 70f
7:50pm 4.5ft 11s 8s 4
mph
1018.8mb 73f 71f
6:50pm 5ft 11s 8s 2 4 mph 1018.6mb 73f 71f
5:50pm 5.5ft 11s 8s  -  2 mph 1018.9mb 74f 73f
4:50pm 5.5ft 11s 8s  -  2 mph 1018.9mb 75f 72f
3:50pm 6.5ft 12s 9s 2 4 mph 1019.3mb 75f 72f
2:50pm 6ft 12s 9s  -  2 mph 1019.6mb 74f 71f
1:50pm 6ft 12s 9s  -  2 mph 1020mb 73f 71f
12:50pm 7ft 12s 10s 2 4 mph 1020.6mb 72f 71f
11:50am 6ft 12s 9s 4 7 mph 1021mb 71f 70f
10:50am 5ft 13s 9s 9 11 mph 1021.1mb 72f 70f
9:50am 6ft 12s 9s 11 13 mph 1020.9mb 72f 70f
8:50am 5ft 11s 9s 9 11 mph 1020.8mb 71f 69f
7:50am 5.5ft 12s 9s 11 13 mph 1020.4mb 71f 70f
6:50am 5ft 12s 9s 11 13 mph 1020.1mb 70f 70f
5:50am 5ft 12s 10s 9
mph
1020mb 70f 69f
4:50am 5ft 11s 9s 9
mph
1019.5mb 70f 68f
3:50am 6ft 12s 10s 9 11 mph 1019.5mb 70f 67f
2:50am 5.5ft 12s 9s 7 9 mph 1019.5mb 70f 67f
1:50am 5ft 12s 8s 4 7 mph 1019.4mb 70f 67f
12:50am 5ft 11s 8s 7
mph
1019.7mb 70f 67f
Mon 08/29 11:50pm 5ft 12s 8s 7 9 mph 1019.3mb 71f 69f
10:50pm 6ft 12s 9s 7 9 mph 1019.2mb 71f 70f
9:50pm 5ft 12s 8s 9 11 mph 1019mb 71f 70f
8:50pm 5.5ft 12s 8s 9 11 mph 1018.6mb 71f 71f
7:50pm 5ft 12s 8s 7 9 mph 1017.7mb 71f 71f
6:50pm 5.5ft 11s 8s 9 11 mph 1017mb 71f 72f
5:50pm 5ft 12s  -  11 13 mph 1017mb 71f 73f
4:50pm 5ft 12s 7s 13 16 mph 1016.9mb 71f 73f
3:50pm 4.5ft 12s 7s 13 16 mph 1016.8mb 71f 73f
2:50pm 5ft 13s 8s 13 16 mph 1017mb 71f 73f
1:50pm 4.5ft 13s 8s 13 16 mph 1017.6mb 71f 72f
12:50pm 4.5ft 13s 9s 13 16 mph 1017.9mb 72f 72f
11:50am 4ft 12s 9s 11 13 mph 1018.3mb 71f 72f
10:50am 3.5ft 13s 9s 9 11 mph 1018.8mb 71f 72f
9:50am 4.5ft 13s 9s 9
mph
1019.5mb 71f 71f
8:50am 4ft 13s 8s 7
mph
1019.5mb 71f 71f
7:50am 3.5ft 13s 7s 4
mph
1019.7mb 70f 71f
6:50am 4.5ft 13s 7s 4 7 mph 1019.8mb 70f 71f
5:50am 3.5ft 13s 7s 2 4 mph 1019.7mb 70f 70f
4:50am 3.5ft 14s 7s 2 4 mph 1019.8mb 70f 71f
3:50am 4ft 13s 7s 2
mph
1020.3mb 70f 70f
2:50am 3.5ft 14s 7s 2 4 mph 1020.6mb 70f 71f
1:50am 3ft 13s 7s 4 7 mph 1020.9mb 70f 71f
12:50am 3ft 14s 7s 4 7 mph 1021.4mb 70f 71f
Sun 08/28 11:50pm 3.5ft 14s 8s 7
mph
1022mb 70f 71f
10:50pm 3.5ft 14s 8s 7 9 mph 1022.1mb 70f 71f
9:50pm 3.5ft 14s 7s 7 9 mph 1022.2mb 70f 71f
8:50pm 4ft 14s 8s 9 11 mph 1021.9mb 70f 70f
7:50pm 3ft 14s 7s 9 11 mph 1021.9mb 71f 70f
6:50pm 3ft 15s 7s 9 11 mph 1022.1mb 71f 69f
5:50pm 2.5ft 15s 7s 9 11 mph 1022.5mb 71f 69f
4:50pm 3.5ft 15s 7s 9
mph
1023.1mb 71f 69f
3:50pm 3ft 15s 7s 9
mph
1023.5mb 70f 69f
2:50pm 3ft 15s 7s 9
mph
1023.9mb 71f 69f
1:50pm 2.5ft 15s 7s 9
mph
1024mb 71f 68f
12:50pm 2.5ft 15s 6s 9 11 mph 1024mb 71f 69f
11:50am 2.5ft 16s 6s 9
mph
1024.4mb 70f 69f
10:50am 2.5ft 8s 6s 11 13 mph 1024.4mb 70f 69f
9:50am 2.5ft 16s 5s 11 13 mph 1024.5mb 70f 69f
8:50am 2ft 8s 5s 11 13 mph 1024.5mb 70f 69f
7:50am 2ft 9s 5s 9 11 mph 1024.4mb 69f 69f
6:50am 2ft 8s 5s 9 11 mph 1024.1mb 69f 69f
5:50am 2ft 9s 5s 9 11 mph 1023.8mb 70f 69f
4:50am 2ft 8s 5s 9 11 mph 1023.3mb 71f 69f
3:50am 2.5ft 8s 5s 7 9 mph 1023.4mb 71f 69f
2:50am 2.5ft 9s 5s 9 11 mph 1023.4mb 71f 69f
1:50am 2.5ft 8s 4s 9 11 mph 1023.5mb 71f 69f
12:50am 2.5ft 8s 4s 13 16 mph 1023.6mb 71f 69f
Sat 08/27 11:50pm 2ft 9s 5s 13 16 mph 1023.3mb 71f 69f
10:50pm 2.5ft 8s 5s 16 18 mph 1023.4mb 71f 70f
9:50pm 2.5ft 9s 5s 13 16 mph 1023.2mb 71f 70f
8:50pm 2.5ft 9s 5s 13 18 mph 1022.7mb 71f 70f
7:50pm 2.5ft 9s 5s 13 16 mph 1022.1mb 71f 70f
6:50pm 2.5ft 9s 5s 13 16 mph 1021.5mb 72f 71f
5:50pm 2.5ft 9s 5s 13 16 mph 1021.3mb 71f 71f
4:50pm 2.5ft 9s 5s 13 18 mph 1021.1mb 72f 71f
3:50pm 2.5ft 9s 4s 13 16 mph 1020.8mb 72f 72f
2:50pm 2.5ft 8s 4s 16
mph
1020.7mb 72f 72f
1:50pm 2.5ft 9s 5s 13 16 mph 1020.8mb 72f 72f
12:50pm 2.5ft 6s 5s 16 18 mph 1020.6mb 72f 73f
11:50am 2.5ft 7s 5s 13 18 mph 1020.6mb 72f 73f
10:50am 2.5ft 7s 5s 13 16 mph 1020.6mb 71f 73f
9:50am 3ft 8s 5s 16 18 mph 1020.2mb 71f 73f
8:50am 3ft 8s 5s 9 11 mph 1019.7mb 71f 71f
7:50am 2.5ft 6s 5s 13 16 mph 1018.9mb 71f 74f
6:50am 2.5ft 6s 5s 9 11 mph 1018.2mb 71f 70f
5:50am 3ft 6s 5s 13 16 mph 1017.7mb 71f 68f
4:50am 3ft 6s 5s 9 11 mph 1017.2mb 72f 71f